Merlin, Oregon
Current Conditions -  °F | °C
As of 11:56 AM on Monday 26 Jan 2015 (Local Time) from KSXT Reporting Station
Clear Clear  
Wind Chill: 61°   Ceiling: Unl
Heat Index: 61°   Visibility: 10mi
Dew Point: 27°   Wind: 10mph
Humidity: 27%   Direction: 170°S
Pressure: 30.07"   Gusts: NA
Location:  42.52°N, 123.42°W
Report Text: KSXT 261956Z AUTO 17009KT 10SM CLR 16/M03 A3007 RMK AO2 SLP147 T01611028
Loading
Personal Weather Stations






























Interactive Weather Map New forecast layout! Learn more

10-Day Weather Forecast

Advertisements
Track Severe Weather on mobile